Aviation Digital Data Service (ADDS)

Output produced by METARs form (0328 UTC 25 October 2014)
found at http://aviationweather.gov/adds/metars/
 
KPQI 250207Z 2502/2524 35008KT 6SM -SHRA OVC025 
     FM250600 34007KT P6SM OVC025 
     FM251600 VRB03KT P6SM BKN035 AMD LTD TO CLD VIS AND WIND